createdAt,value
2023-12-15T00:00:26.778Z,68.02
2023-12-15T00:02:53.303Z,68.07
2023-12-15T00:05:19.962Z,68.12
2023-12-15T00:07:46.517Z,68.07
2023-12-15T00:10:13.440Z,68.00
2023-12-15T00:12:39.996Z,67.95
2023-12-15T00:15:07.072Z,68.00
2023-12-15T00:17:33.923Z,67.39
2023-12-15T00:20:00.814Z,67.71
2023-12-15T00:22:27.342Z,68.12
2023-12-15T00:24:53.838Z,68.04
2023-12-15T00:27:20.304Z,67.84
2023-12-15T00:29:46.976Z,67.91
2023-12-15T00:32:13.497Z,67.67
2023-12-15T00:34:40.040Z,67.99
2023-12-15T00:37:06.574Z,67.82
2023-12-15T00:39:37.138Z,67.77
2023-12-15T00:42:05.599Z,68.16
2023-12-15T00:44:34.011Z,68.52
2023-12-15T00:47:01.625Z,68.16
2023-12-15T00:49:28.427Z,68.03
2023-12-15T00:51:55.683Z,68.40
2023-12-15T00:54:22.290Z,68.64
2023-12-15T00:56:49.195Z,68.14
2023-12-15T00:59:15.941Z,68.53
2023-12-15T01:01:42.555Z,68.22
2023-12-15T01:04:09.452Z,68.24
2023-12-15T01:06:36.020Z,68.22
2023-12-15T01:09:02.600Z,68.24
2023-12-15T01:11:29.243Z,68.17
2023-12-15T01:13:55.780Z,68.40
2023-12-15T01:16:22.333Z,68.87
2023-12-15T01:18:48.907Z,68.38
2023-12-15T01:21:15.427Z,68.19
2023-12-15T01:23:41.952Z,68.21
2023-12-15T01:26:08.725Z,67.85
2023-12-15T01:28:35.263Z,68.08
2023-12-15T01:31:02.843Z,67.69
2023-12-15T01:33:30.396Z,68.05
2023-12-15T01:35:57.710Z,68.51
2023-12-15T01:38:24.301Z,67.96
2023-12-15T01:40:51.084Z,67.86
2023-12-15T01:43:17.660Z,67.98
2023-12-15T01:45:44.285Z,67.51
2023-12-15T01:48:12.032Z,67.46
2023-12-15T01:50:39.916Z,67.62
2023-12-15T01:53:06.623Z,68.00
2023-12-15T01:55:33.217Z,67.87
2023-12-15T01:57:59.805Z,67.45
2023-12-15T02:00:26.373Z,67.40
2023-12-15T02:02:52.942Z,67.70
2023-12-15T02:05:19.553Z,67.52
2023-12-15T02:07:46.565Z,67.44
2023-12-15T02:10:13.199Z,67.59
2023-12-15T02:12:39.737Z,67.64
2023-12-15T02:15:09.684Z,67.50
2023-12-15T02:17:36.708Z,67.36
2023-12-15T02:20:03.693Z,67.40
2023-12-15T02:22:30.307Z,67.13
2023-12-15T02:24:56.825Z,67.36
2023-12-15T02:27:23.307Z,67.72
2023-12-15T02:29:49.819Z,67.95
2023-12-15T02:32:16.353Z,67.80
2023-12-15T02:34:43.060Z,67.70
2023-12-15T02:37:09.637Z,67.63
2023-12-15T02:39:39.709Z,67.43
2023-12-15T02:42:06.635Z,67.14
2023-12-15T02:44:34.157Z,66.63
2023-12-15T02:47:00.751Z,67.02
2023-12-15T02:51:53.749Z,67.01
2023-12-15T02:54:20.241Z,67.09
2023-12-15T02:56:46.842Z,67.29
2023-12-15T02:59:13.328Z,67.41
2023-12-15T03:01:39.820Z,67.85
2023-12-15T03:04:06.328Z,67.90
2023-12-15T03:06:32.871Z,68.40
2023-12-15T03:08:59.341Z,68.66
2023-12-15T03:11:25.909Z,69.01
2023-12-15T03:13:52.484Z,69.07
2023-12-15T03:16:19.034Z,69.70
2023-12-15T03:18:45.530Z,69.97
2023-12-15T03:21:12.106Z,70.03
2023-12-15T03:23:38.599Z,70.17
2023-12-15T03:26:05.455Z,70.66
2023-12-15T03:28:32.390Z,70.64
2023-12-15T03:30:58.956Z,70.42
2023-12-15T03:33:28.632Z,70.29
2023-12-15T03:35:55.181Z,70.46
2023-12-15T03:38:21.886Z,70.81
2023-12-15T03:40:48.437Z,70.71
2023-12-15T03:43:14.977Z,70.83
2023-12-15T03:45:41.495Z,71.33
2023-12-15T03:48:08.115Z,71.67
2023-12-15T03:50:34.931Z,71.61
2023-12-15T03:53:01.586Z,72.23
2023-12-15T03:55:28.130Z,72.10
2023-12-15T03:57:54.710Z,72.52
2023-12-15T04:00:21.726Z,72.67
2023-12-15T04:02:48.726Z,72.62
2023-12-15T04:05:15.807Z,72.88
2023-12-15T04:07:42.783Z,72.94
2023-12-15T04:10:10.354Z,73.06
2023-12-15T04:12:36.946Z,73.17
2023-12-15T04:15:03.958Z,73.59
2023-12-15T04:17:30.686Z,73.60
2023-12-15T04:19:57.619Z,74.20
2023-12-15T04:22:24.253Z,74.07
2023-12-15T04:24:51.076Z,74.14
2023-12-15T04:27:17.733Z,74.34
2023-12-15T04:29:44.351Z,73.99
2023-12-15T04:32:10.850Z,73.79
2023-12-15T04:34:38.778Z,73.87
2023-12-15T04:37:05.416Z,73.89
2023-12-15T04:39:32.035Z,74.15
2023-12-15T04:41:58.587Z,73.76
2023-12-15T04:44:25.142Z,73.77
2023-12-15T04:46:56.782Z,73.56
2023-12-15T04:49:24.094Z,73.14
2023-12-15T04:51:50.686Z,73.09
2023-12-15T04:54:17.211Z,73.01
2023-12-15T04:56:45.180Z,72.67
2023-12-15T04:59:12.091Z,73.04
2023-12-15T05:01:38.634Z,72.92
2023-12-15T05:04:05.129Z,73.20
2023-12-15T05:06:32.491Z,73.23
2023-12-15T05:08:59.161Z,73.18
2023-12-15T05:11:27.363Z,73.56
2023-12-15T05:13:53.956Z,73.67
2023-12-15T05:16:20.569Z,73.62
2023-12-15T05:18:47.176Z,73.53
2023-12-15T05:21:13.798Z,73.51
2023-12-15T05:23:40.998Z,73.10
2023-12-15T05:26:07.561Z,72.93
2023-12-15T05:28:34.095Z,72.83
2023-12-15T05:31:00.607Z,72.59
2023-12-15T05:33:27.390Z,72.06
2023-12-15T05:35:53.970Z,71.61
2023-12-15T05:38:20.496Z,71.08
2023-12-15T05:40:47.410Z,71.12
2023-12-15T05:43:13.943Z,71.10
2023-12-15T05:45:40.491Z,70.66
2023-12-15T05:48:07.156Z,70.14
2023-12-15T05:50:36.713Z,69.71
2023-12-15T05:53:03.791Z,69.52
2023-12-15T05:55:30.416Z,68.79
2023-12-15T05:57:56.865Z,68.33
2023-12-15T06:00:23.352Z,67.96
2023-12-15T06:02:49.899Z,67.64
2023-12-15T06:05:16.593Z,67.71
2023-12-15T06:07:43.184Z,67.52
2023-12-15T06:10:09.869Z,67.69
2023-12-15T06:12:36.383Z,68.04
2023-12-15T06:15:02.898Z,68.12
2023-12-15T06:17:29.601Z,68.05
2023-12-15T06:19:56.212Z,68.26
2023-12-15T06:22:22.765Z,67.69
2023-12-15T06:24:49.293Z,67.89
2023-12-15T06:27:15.781Z,67.90
2023-12-15T06:29:42.550Z,67.68
2023-12-15T06:32:11.795Z,67.41
2023-12-15T06:34:42.413Z,67.16
2023-12-15T06:37:09.141Z,66.98
2023-12-15T06:39:35.744Z,66.97
2023-12-15T06:42:04.174Z,67.31
2023-12-15T06:44:31.350Z,68.40
2023-12-15T06:46:58.283Z,68.32
2023-12-15T06:49:31.639Z,68.05
2023-12-15T06:51:59.660Z,68.00
2023-12-15T06:54:26.646Z,67.93
2023-12-15T06:56:53.319Z,67.90
2023-12-15T06:59:19.910Z,67.80
2023-12-15T07:01:46.408Z,68.49
2023-12-15T07:04:13.168Z,68.81
2023-12-15T07:06:39.880Z,68.90
2023-12-15T07:09:06.531Z,68.54
2023-12-15T07:11:33.201Z,68.71
2023-12-15T07:13:59.729Z,68.83
2023-12-15T07:16:26.268Z,68.72
2023-12-15T07:18:52.796Z,69.31
2023-12-15T07:21:19.399Z,68.92
2023-12-15T07:23:46.114Z,68.73
2023-12-15T07:26:12.784Z,68.52
2023-12-15T07:28:39.294Z,68.55
2023-12-15T07:31:08.332Z,68.66
2023-12-15T07:33:36.321Z,68.54
2023-12-15T07:36:03.102Z,68.07
2023-12-15T07:38:29.741Z,67.33
2023-12-15T07:40:56.319Z,67.66
2023-12-15T07:43:22.897Z,67.49
2023-12-15T07:45:49.510Z,67.24
2023-12-15T07:48:16.260Z,67.14
2023-12-15T07:50:43.057Z,67.42
2023-12-15T07:53:10.098Z,66.70
2023-12-15T07:55:36.665Z,66.15
2023-12-15T07:58:03.185Z,65.62
2023-12-15T08:00:29.806Z,65.19
2023-12-15T08:02:56.512Z,64.38
2023-12-15T08:05:23.532Z,64.77
2023-12-15T08:07:50.177Z,65.00
2023-12-15T08:10:16.713Z,64.66
2023-12-15T08:12:43.221Z,65.24
2023-12-15T08:15:09.917Z,65.44
2023-12-15T08:17:36.751Z,65.38
2023-12-15T08:20:04.025Z,66.03
2023-12-15T08:22:30.577Z,66.30
2023-12-15T08:24:57.352Z,67.55
2023-12-15T08:27:24.066Z,67.78
2023-12-15T08:29:51.541Z,67.78
2023-12-15T08:32:18.176Z,67.83
2023-12-15T08:34:44.722Z,67.81
2023-12-15T08:37:11.205Z,68.17
2023-12-15T08:39:37.756Z,68.18
2023-12-15T08:42:04.633Z,67.81
2023-12-15T08:44:34.609Z,67.84
2023-12-15T08:47:02.320Z,67.58
2023-12-15T08:49:29.539Z,67.91
2023-12-15T08:51:56.303Z,67.95
2023-12-15T08:54:22.873Z,68.31
2023-12-15T08:56:49.643Z,68.09
2023-12-15T08:59:16.316Z,68.20
2023-12-15T09:01:42.897Z,68.05
2023-12-15T09:04:10.157Z,67.94
2023-12-15T09:06:40.372Z,67.69
2023-12-15T09:09:12.634Z,66.94
2023-12-15T09:11:40.055Z,67.12
2023-12-15T09:14:06.887Z,66.95
2023-12-15T09:16:33.586Z,67.03
2023-12-15T09:19:00.331Z,66.69
2023-12-15T09:21:27.264Z,66.38
2023-12-15T09:23:57.887Z,66.83
2023-12-15T09:26:24.860Z,67.02
2023-12-15T09:28:51.470Z,66.85
2023-12-15T09:31:18.025Z,66.48
2023-12-15T09:33:44.664Z,66.90
2023-12-15T09:36:11.944Z,66.37
2023-12-15T09:38:38.753Z,66.22
2023-12-15T09:41:05.726Z,66.14
2023-12-15T09:43:32.347Z,65.99
2023-12-15T09:45:59.831Z,66.20
2023-12-15T09:48:29.662Z,66.09
2023-12-15T09:50:57.455Z,66.06
2023-12-15T09:53:25.572Z,65.97
2023-12-15T09:55:52.900Z,65.55
2023-12-15T09:58:19.538Z,66.19
2023-12-15T10:00:46.499Z,65.95
2023-12-15T10:03:16.034Z,65.81
2023-12-15T10:05:43.241Z,65.76
2023-12-15T10:08:10.053Z,65.78
2023-12-15T10:10:36.693Z,65.07
2023-12-15T10:13:03.348Z,65.00
2023-12-15T10:15:30.679Z,64.88
2023-12-15T10:17:58.988Z,64.37
2023-12-15T10:20:26.327Z,64.17
2023-12-15T10:23:07.913Z,64.29
2023-12-15T10:25:34.739Z,64.28
2023-12-15T10:28:03.233Z,63.91
2023-12-15T10:30:30.181Z,64.94
2023-12-15T10:33:01.123Z,63.08
2023-12-15T10:35:30.044Z,63.12
2023-12-15T10:37:56.970Z,62.84
2023-12-15T10:40:23.886Z,62.71
2023-12-15T10:42:52.376Z,65.64
2023-12-15T10:45:20.550Z,62.38
2023-12-15T10:47:49.972Z,62.27
2023-12-15T10:50:17.090Z,62.05
2023-12-15T10:52:45.713Z,61.43
2023-12-15T10:55:14.907Z,61.04
2023-12-15T10:57:42.399Z,61.66
2023-12-15T11:00:11.269Z,61.31
2023-12-15T11:02:40.588Z,61.32
2023-12-15T11:05:10.863Z,60.56
2023-12-15T11:07:38.202Z,61.18
2023-12-15T11:10:05.352Z,61.28
2023-12-15T11:12:32.932Z,61.48
2023-12-15T11:15:08.233Z,61.57
2023-12-15T11:17:39.925Z,61.08
2023-12-15T11:20:11.114Z,61.00
2023-12-15T11:22:42.169Z,60.24
2023-12-15T11:25:16.899Z,60.67
2023-12-15T11:28:09.555Z,60.89
2023-12-15T11:30:42.006Z,61.07
2023-12-15T11:33:42.191Z,61.40
2023-12-15T11:36:11.255Z,61.71
2023-12-15T11:38:39.012Z,61.71
2023-12-15T11:41:07.110Z,61.51
2023-12-15T11:43:37.419Z,61.41
2023-12-15T11:46:05.371Z,61.55
2023-12-15T11:48:34.110Z,61.72
2023-12-15T11:51:00.930Z,61.10
2023-12-15T11:53:28.488Z,60.37
2023-12-15T11:55:56.341Z,59.84
2023-12-15T11:58:23.397Z,60.24
2023-12-15T12:00:50.120Z,60.09
2023-12-15T12:03:17.314Z,59.87
2023-12-15T12:05:49.231Z,59.82
2023-12-15T12:08:16.154Z,59.81
2023-12-15T12:10:43.597Z,60.09
2023-12-15T12:13:12.376Z,60.39
2023-12-15T12:15:55.366Z,60.84
2023-12-15T12:18:22.865Z,60.19
2023-12-15T12:20:49.617Z,60.65
2023-12-15T12:23:22.105Z,60.64
2023-12-15T12:25:55.477Z,61.13
2023-12-15T12:28:22.591Z,61.21
2023-12-15T12:30:49.411Z,61.24
2023-12-15T12:33:17.783Z,61.49
2023-12-15T12:35:44.994Z,60.96
2023-12-15T12:38:11.870Z,60.85
2023-12-15T12:40:38.582Z,60.76
2023-12-15T12:43:05.162Z,60.66
2023-12-15T12:45:32.374Z,60.74
2023-12-15T12:47:58.981Z,60.17
2023-12-15T12:50:25.725Z,59.54
2023-12-15T12:52:54.612Z,60.35
2023-12-15T12:55:22.468Z,60.07
2023-12-15T12:57:49.413Z,60.43
2023-12-15T13:00:17.353Z,60.28
2023-12-15T13:02:44.557Z,59.71
2023-12-15T13:05:11.729Z,60.35
2023-12-15T13:07:38.577Z,59.61
2023-12-15T13:10:17.574Z,59.53
2023-12-15T13:12:46.286Z,59.58
2023-12-15T13:15:13.480Z,59.32
2023-12-15T13:17:41.013Z,59.04
2023-12-15T13:20:10.571Z,58.39
2023-12-15T13:22:45.655Z,58.18
2023-12-15T13:25:15.685Z,58.35
2023-12-15T13:27:42.779Z,58.50
2023-12-15T13:30:11.464Z,59.08
2023-12-15T13:32:39.949Z,59.28
2023-12-15T13:35:10.954Z,58.85
2023-12-15T13:37:37.717Z,58.71
2023-12-15T13:40:05.371Z,59.06
2023-12-15T13:42:32.078Z,58.70
2023-12-15T13:44:58.793Z,59.17
2023-12-15T13:47:25.907Z,59.22
2023-12-15T13:49:52.697Z,59.31
2023-12-15T13:52:20.082Z,59.04
2023-12-15T13:54:46.814Z,59.38
2023-12-15T13:57:13.419Z,59.50
2023-12-15T13:59:40.046Z,59.43
2023-12-15T14:02:06.921Z,59.21
2023-12-15T14:04:33.453Z,59.18
2023-12-15T14:07:01.352Z,59.17
2023-12-15T14:09:29.153Z,59.40
2023-12-15T14:11:57.345Z,59.00
2023-12-15T14:14:24.393Z,59.33
2023-12-15T14:16:51.065Z,59.68
2023-12-15T14:19:19.133Z,59.45
2023-12-15T14:21:47.064Z,58.96
2023-12-15T14:24:18.075Z,58.87
2023-12-15T14:26:45.336Z,59.33
2023-12-15T14:29:12.284Z,59.10
2023-12-15T14:31:39.525Z,58.66
2023-12-15T14:34:06.512Z,58.46
2023-12-15T14:36:33.413Z,58.42
2023-12-15T14:38:59.994Z,58.09
2023-12-15T14:41:27.965Z,58.06
2023-12-15T14:43:54.545Z,58.47
2023-12-15T14:46:21.236Z,57.91
2023-12-15T14:48:48.906Z,57.65
2023-12-15T14:51:15.849Z,57.59
2023-12-15T14:53:42.393Z,57.46
2023-12-15T14:56:12.092Z,57.26
2023-12-15T14:58:40.537Z,56.87
2023-12-15T15:01:07.575Z,56.64
2023-12-15T15:03:34.953Z,57.05
2023-12-15T15:06:02.184Z,56.71
2023-12-15T15:08:29.035Z,56.16
2023-12-15T15:10:55.648Z,56.54
2023-12-15T15:13:23.595Z,56.05
2023-12-15T15:15:50.702Z,55.42
2023-12-15T15:18:17.511Z,55.17
2023-12-15T15:20:44.508Z,54.84
2023-12-15T15:23:11.197Z,54.57
2023-12-15T15:25:38.482Z,54.82
2023-12-15T15:28:05.048Z,54.04
2023-12-15T15:30:31.583Z,53.89
2023-12-15T15:32:58.292Z,53.36
2023-12-15T15:35:25.926Z,53.74
2023-12-15T15:37:53.988Z,53.63
2023-12-15T15:40:20.553Z,53.50
2023-12-15T15:42:47.568Z,53.48
2023-12-15T15:45:14.190Z,53.52
2023-12-15T15:47:41.469Z,54.12
2023-12-15T15:50:08.719Z,53.76
2023-12-15T15:52:35.217Z,54.07
2023-12-15T15:55:01.863Z,54.38
2023-12-15T15:57:31.344Z,53.97
2023-12-15T15:59:57.896Z,54.79
2023-12-15T16:02:24.670Z,55.09
2023-12-15T16:04:51.505Z,55.10
2023-12-15T16:07:18.242Z,56.07
2023-12-15T16:09:47.332Z,55.61
2023-12-15T16:12:14.328Z,54.98
2023-12-15T16:14:40.988Z,55.30
2023-12-15T16:17:07.473Z,55.24
2023-12-15T16:19:34.100Z,55.19
2023-12-15T16:22:01.307Z,54.93
2023-12-15T16:24:28.198Z,55.11
2023-12-15T16:26:54.779Z,54.70
2023-12-15T16:29:21.280Z,54.39
2023-12-15T16:31:47.842Z,54.11
2023-12-15T16:34:15.217Z,53.47
2023-12-15T16:36:41.889Z,53.42
2023-12-15T16:39:14.569Z,53.34
2023-12-15T16:41:41.709Z,53.16
2023-12-15T16:44:08.190Z,52.81
2023-12-15T16:46:34.666Z,53.58
2023-12-15T16:49:01.931Z,53.86
2023-12-15T16:51:37.060Z,53.69
2023-12-15T16:54:04.343Z,53.69
2023-12-15T16:56:31.074Z,53.55
2023-12-15T16:58:57.622Z,52.93
2023-12-15T17:01:24.180Z,52.38
2023-12-15T17:03:50.805Z,52.40
2023-12-15T17:06:17.512Z,52.28
2023-12-15T17:08:45.031Z,52.16
2023-12-15T17:11:13.238Z,52.86
2023-12-15T17:13:40.203Z,52.36
2023-12-15T17:16:07.171Z,52.60
2023-12-15T17:18:33.846Z,52.63
2023-12-15T17:21:00.686Z,52.25
2023-12-15T17:23:27.748Z,52.45
2023-12-15T17:25:54.345Z,52.15
2023-12-15T17:28:21.078Z,52.17
2023-12-15T17:30:47.761Z,52.29
2023-12-15T17:33:16.074Z,52.28
2023-12-15T17:35:42.642Z,52.65
2023-12-15T17:38:09.175Z,52.52
2023-12-15T17:40:35.691Z,52.45
2023-12-15T17:43:02.168Z,52.38
2023-12-15T17:45:28.709Z,52.45
2023-12-15T17:47:55.293Z,52.14
2023-12-15T17:50:22.320Z,52.19
2023-12-15T17:52:48.930Z,51.97
2023-12-15T17:55:15.678Z,52.11
2023-12-15T17:57:43.168Z,52.15
2023-12-15T18:00:11.003Z,52.29
2023-12-15T18:02:37.766Z,52.90
2023-12-15T18:05:04.855Z,52.89
2023-12-15T18:07:31.386Z,52.96
2023-12-15T18:09:57.911Z,52.39
2023-12-15T18:12:24.523Z,52.68
2023-12-15T18:14:51.025Z,52.43
2023-12-15T18:17:17.503Z,52.53
2023-12-15T18:19:44.069Z,52.53
2023-12-15T18:22:11.017Z,52.63
2023-12-15T18:24:43.361Z,52.84
2023-12-15T18:27:09.902Z,52.93
2023-12-15T18:29:36.470Z,53.08
2023-12-15T18:32:03.647Z,53.21
2023-12-15T18:34:30.513Z,53.31
2023-12-15T18:37:01.268Z,53.67
2023-12-15T18:39:27.883Z,53.53
2023-12-15T18:41:54.372Z,53.56
2023-12-15T18:44:20.908Z,53.53
2023-12-15T18:46:47.637Z,53.56
2023-12-15T18:49:15.364Z,53.62
2023-12-15T18:51:42.544Z,53.34
2023-12-15T18:54:13.717Z,53.32
2023-12-15T18:56:41.278Z,53.80
2023-12-15T18:59:08.060Z,53.85
2023-12-15T19:01:35.442Z,53.04
2023-12-15T19:04:02.268Z,53.69
2023-12-15T19:06:28.915Z,53.66
2023-12-15T19:08:55.519Z,53.16
2023-12-15T19:11:30.897Z,53.92
2023-12-15T19:13:57.967Z,53.34
2023-12-15T19:16:24.997Z,52.36
2023-12-15T19:18:52.049Z,52.53
2023-12-15T19:21:19.454Z,52.80
2023-12-15T19:23:46.973Z,52.86
2023-12-15T19:26:13.542Z,53.56
2023-12-15T19:28:41.124Z,53.65
2023-12-15T19:31:07.977Z,53.22
2023-12-15T19:33:34.775Z,53.44
2023-12-15T19:36:01.442Z,53.09
2023-12-15T19:38:28.187Z,53.22
2023-12-15T19:40:54.679Z,52.97
2023-12-15T19:43:21.725Z,53.34
2023-12-15T19:45:48.700Z,53.81
2023-12-15T19:48:15.448Z,54.14
2023-12-15T19:50:42.003Z,54.01
2023-12-15T19:53:08.539Z,53.73
2023-12-15T19:55:37.500Z,53.68
2023-12-15T19:58:07.355Z,53.68
2023-12-15T20:00:36.757Z,53.53
2023-12-15T20:03:03.473Z,53.66
2023-12-15T20:05:30.201Z,54.04
2023-12-15T20:07:57.258Z,53.46
2023-12-15T20:10:23.805Z,53.58
2023-12-15T20:12:50.444Z,53.71
2023-12-15T20:15:17.934Z,53.84
2023-12-15T20:17:45.561Z,54.07
2023-12-15T20:20:13.216Z,54.06
2023-12-15T20:22:39.829Z,54.28
2023-12-15T20:25:07.975Z,54.30
2023-12-15T20:27:42.321Z,54.64
2023-12-15T20:30:11.917Z,54.46
2023-12-15T20:32:38.731Z,54.38
2023-12-15T20:35:09.526Z,54.75
2023-12-15T20:37:36.405Z,54.96
2023-12-15T20:40:03.686Z,54.57
2023-12-15T20:42:30.522Z,54.57
2023-12-15T20:44:56.990Z,53.91
2023-12-15T20:47:24.106Z,54.24
2023-12-15T20:49:50.709Z,54.79
2023-12-15T20:52:18.043Z,54.43
2023-12-15T20:54:44.702Z,54.77
2023-12-15T20:57:11.261Z,55.50
2023-12-15T20:59:42.041Z,55.88
2023-12-15T21:02:08.594Z,55.90
2023-12-15T21:04:36.817Z,55.81
2023-12-15T21:07:05.053Z,55.94
2023-12-15T21:09:31.936Z,56.63
2023-12-15T21:11:58.579Z,56.47
2023-12-15T21:14:25.212Z,56.61
2023-12-15T21:16:52.787Z,56.54
2023-12-15T21:19:19.425Z,56.61
2023-12-15T21:21:46.555Z,56.51
2023-12-15T21:24:13.351Z,56.22
2023-12-15T21:26:39.874Z,55.78
2023-12-15T21:29:07.117Z,55.67
2023-12-15T21:31:33.806Z,55.77
2023-12-15T21:34:00.558Z,55.88
2023-12-15T21:36:27.199Z,55.68
2023-12-15T21:38:53.733Z,55.62
2023-12-15T21:41:20.280Z,55.59
2023-12-15T21:43:46.948Z,55.22
2023-12-15T21:46:15.918Z,55.23
2023-12-15T21:48:43.150Z,55.09
2023-12-15T21:51:09.713Z,54.93
2023-12-15T21:53:36.250Z,54.83
2023-12-15T21:56:06.137Z,55.08
2023-12-15T21:58:32.633Z,54.89
2023-12-15T22:01:00.472Z,55.01
2023-12-15T22:03:27.125Z,55.01
2023-12-15T22:05:53.725Z,54.96
2023-12-15T22:08:20.243Z,54.89
2023-12-15T22:10:46.732Z,54.92
2023-12-15T22:13:13.326Z,55.04
2023-12-15T22:15:39.947Z,54.97
2023-12-15T22:18:06.523Z,55.35
2023-12-15T22:20:33.076Z,55.53
2023-12-15T22:23:00.037Z,55.61
2023-12-15T22:25:26.736Z,55.76
2023-12-15T22:27:53.359Z,55.79
2023-12-15T22:30:25.249Z,56.67
2023-12-15T22:32:52.794Z,57.00
2023-12-15T22:35:19.482Z,56.78
2023-12-15T22:37:46.008Z,57.02
2023-12-15T22:40:12.716Z,56.71
2023-12-15T22:42:39.261Z,57.22
2023-12-15T22:45:06.609Z,57.01
2023-12-15T22:47:34.412Z,57.07
2023-12-15T22:50:01.655Z,57.21
2023-12-15T22:52:28.481Z,57.25
2023-12-15T22:54:55.137Z,57.00
2023-12-15T22:57:21.745Z,57.08
2023-12-15T22:59:48.264Z,56.80
2023-12-15T23:02:14.724Z,56.31
2023-12-15T23:04:41.534Z,56.18
2023-12-15T23:07:09.248Z,56.47
2023-12-15T23:09:35.987Z,56.20
2023-12-15T23:12:03.452Z,56.10
2023-12-15T23:14:30.024Z,56.30
2023-12-15T23:16:56.512Z,56.04
2023-12-15T23:19:23.178Z,55.86
2023-12-15T23:21:49.798Z,55.92
2023-12-15T23:24:16.345Z,55.75
2023-12-15T23:26:42.938Z,55.74
2023-12-15T23:29:10.539Z,55.83
2023-12-15T23:31:37.210Z,55.75
2023-12-15T23:34:03.945Z,55.99
2023-12-15T23:36:31.285Z,55.76
2023-12-15T23:38:59.065Z,55.65
2023-12-15T23:41:25.580Z,55.62
2023-12-15T23:43:52.067Z,55.79
2023-12-15T23:46:18.585Z,55.83
2023-12-15T23:48:45.235Z,56.05
2023-12-15T23:51:11.868Z,55.77
2023-12-15T23:53:38.373Z,56.16
2023-12-15T23:56:05.761Z,56.52
2023-12-15T23:58:34.130Z,56.29
